sensor_id;sensor_type;location;lat;lon;timestamp;temperature;humidity
72604;DHT22;60645;56.968;24.196;2023-04-24T00:01:59;13.40;57.80
72604;DHT22;60645;56.968;24.196;2023-04-24T00:04:26;13.40;57.80
72604;DHT22;60645;56.968;24.196;2023-04-24T00:06:53;13.30;58.00
72604;DHT22;60645;56.968;24.196;2023-04-24T00:09:26;13.30;57.80
72604;DHT22;60645;56.968;24.196;2023-04-24T00:11:53;13.30;58.20
72604;DHT22;60645;56.968;24.196;2023-04-24T00:14:20;13.30;58.20
72604;DHT22;60645;56.968;24.196;2023-04-24T00:16:47;13.20;58.00
72604;DHT22;60645;56.968;24.196;2023-04-24T00:19:14;13.20;58.10
72604;DHT22;60645;56.968;24.196;2023-04-24T00:21:41;13.20;58.10
72604;DHT22;60645;56.968;24.196;2023-04-24T00:24:08;13.10;58.20
72604;DHT22;60645;56.968;24.196;2023-04-24T00:26:35;13.10;58.40
72604;DHT22;60645;56.968;24.196;2023-04-24T00:29:02;13.20;58.30
72604;DHT22;60645;56.968;24.196;2023-04-24T00:31:29;13.20;58.20
72604;DHT22;60645;56.968;24.196;2023-04-24T00:33:57;13.10;58.50
72604;DHT22;60645;56.968;24.196;2023-04-24T00:36:24;13.10;58.40
72604;DHT22;60645;56.968;24.196;2023-04-24T00:38:51;13.10;58.40
72604;DHT22;60645;56.968;24.196;2023-04-24T00:41:18;13.10;58.50
72604;DHT22;60645;56.968;24.196;2023-04-24T00:43:45;13.00;58.50
72604;DHT22;60645;56.968;24.196;2023-04-24T00:46:13;13.00;58.60
72604;DHT22;60645;56.968;24.196;2023-04-24T00:48:40;13.10;58.50
72604;DHT22;60645;56.968;24.196;2023-04-24T00:51:07;13.00;58.50
72604;DHT22;60645;56.968;24.196;2023-04-24T00:53:34;13.00;58.70
72604;DHT22;60645;56.968;24.196;2023-04-24T00:56:02;13.00;58.90
72604;DHT22;60645;56.968;24.196;2023-04-24T00:58:29;13.00;58.80
72604;DHT22;60645;56.968;24.196;2023-04-24T01:00:58;12.80;59.20
72604;DHT22;60645;56.968;24.196;2023-04-24T01:03:29;12.80;59.40
72604;DHT22;60645;56.968;24.196;2023-04-24T01:05:58;12.90;59.20
72604;DHT22;60645;56.968;24.196;2023-04-24T01:08:26;12.70;60.10
72604;DHT22;60645;56.968;24.196;2023-04-24T01:10:55;12.70;59.50
72604;DHT22;60645;56.968;24.196;2023-04-24T01:13:24;12.70;59.80
72604;DHT22;60645;56.968;24.196;2023-04-24T01:15:51;12.60;60.10
72604;DHT22;60645;56.968;24.196;2023-04-24T01:18:18;12.70;60.40
72604;DHT22;60645;56.968;24.196;2023-04-24T01:20:45;12.60;60.80
72604;DHT22;60645;56.968;24.196;2023-04-24T01:23:13;12.60;60.70
72604;DHT22;60645;56.968;24.196;2023-04-24T01:25:40;12.60;60.40
72604;DHT22;60645;56.968;24.196;2023-04-24T01:28:07;12.50;60.90
72604;DHT22;60645;56.968;24.196;2023-04-24T01:30:34;12.50;60.60
72604;DHT22;60645;56.968;24.196;2023-04-24T01:33:01;12.50;60.50
72604;DHT22;60645;56.968;24.196;2023-04-24T01:35:29;12.60;60.50
72604;DHT22;60645;56.968;24.196;2023-04-24T01:37:56;12.60;60.60
72604;DHT22;60645;56.968;24.196;2023-04-24T01:40:23;12.60;60.50
72604;DHT22;60645;56.968;24.196;2023-04-24T01:42:50;12.60;60.30
72604;DHT22;60645;56.968;24.196;2023-04-24T01:45:17;12.60;60.30
72604;DHT22;60645;56.968;24.196;2023-04-24T01:47:45;12.50;60.60
72604;DHT22;60645;56.968;24.196;2023-04-24T01:50:12;12.50;60.40
72604;DHT22;60645;56.968;24.196;2023-04-24T01:52:39;12.50;60.50
72604;DHT22;60645;56.968;24.196;2023-04-24T01:55:07;12.50;60.70
72604;DHT22;60645;56.968;24.196;2023-04-24T01:57:34;12.50;60.60
72604;DHT22;60645;56.968;24.196;2023-04-24T02:00:03;12.40;60.80
72604;DHT22;60645;56.968;24.196;2023-04-24T02:02:31;12.40;60.70
72604;DHT22;60645;56.968;24.196;2023-04-24T02:04:58;12.40;60.90
72604;DHT22;60645;56.968;24.196;2023-04-24T02:07:25;12.40;60.70
72604;DHT22;60645;56.968;24.196;2023-04-24T02:09:52;12.40;61.20
72604;DHT22;60645;56.968;24.196;2023-04-24T02:12:19;12.30;61.20
72604;DHT22;60645;56.968;24.196;2023-04-24T02:14:46;12.30;61.60
72604;DHT22;60645;56.968;24.196;2023-04-24T02:17:13;12.30;61.50
72604;DHT22;60645;56.968;24.196;2023-04-24T02:19:42;12.20;61.60
72604;DHT22;60645;56.968;24.196;2023-04-24T02:22:09;12.20;61.70
72604;DHT22;60645;56.968;24.196;2023-04-24T02:24:37;12.20;61.70
72604;DHT22;60645;56.968;24.196;2023-04-24T02:27:04;12.20;61.90
72604;DHT22;60645;56.968;24.196;2023-04-24T02:29:31;12.20;62.00
72604;DHT22;60645;56.968;24.196;2023-04-24T02:31:58;12.10;62.00
72604;DHT22;60645;56.968;24.196;2023-04-24T02:34:25;12.00;62.30
72604;DHT22;60645;56.968;24.196;2023-04-24T02:36:52;12.10;62.40
72604;DHT22;60645;56.968;24.196;2023-04-24T02:39:20;12.10;62.50
72604;DHT22;60645;56.968;24.196;2023-04-24T02:41:47;12.10;62.50
72604;DHT22;60645;56.968;24.196;2023-04-24T02:44:14;11.90;62.50
72604;DHT22;60645;56.968;24.196;2023-04-24T02:46:41;11.80;62.40
72604;DHT22;60645;56.968;24.196;2023-04-24T02:49:08;11.90;62.40
72604;DHT22;60645;56.968;24.196;2023-04-24T02:51:35;11.90;62.30
72604;DHT22;60645;56.968;24.196;2023-04-24T02:54:04;12.00;62.30
72604;DHT22;60645;56.968;24.196;2023-04-24T02:56:31;12.00;62.40
72604;DHT22;60645;56.968;24.196;2023-04-24T02:58:58;12.00;62.40
72604;DHT22;60645;56.968;24.196;2023-04-24T03:01:25;11.80;62.40
72604;DHT22;60645;56.968;24.196;2023-04-24T03:03:52;12.00;62.50
72604;DHT22;60645;56.968;24.196;2023-04-24T03:06:19;11.80;62.80
72604;DHT22;60645;56.968;24.196;2023-04-24T03:08:47;12.00;62.50
72604;DHT22;60645;56.968;24.196;2023-04-24T03:11:14;11.90;62.30
72604;DHT22;60645;56.968;24.196;2023-04-24T03:13:41;12.00;62.10
72604;DHT22;60645;56.968;24.196;2023-04-24T03:16:08;12.10;62.00
72604;DHT22;60645;56.968;24.196;2023-04-24T03:18:35;12.30;61.70
72604;DHT22;60645;56.968;24.196;2023-04-24T03:21:02;12.60;61.00
72604;DHT22;60645;56.968;24.196;2023-04-24T03:23:30;12.80;59.70
72604;DHT22;60645;56.968;24.196;2023-04-24T03:25:57;13.10;59.00
72604;DHT22;60645;56.968;24.196;2023-04-24T03:28:23;13.30;58.10
72604;DHT22;60645;56.968;24.196;2023-04-24T03:30:51;13.70;57.20
72604;DHT22;60645;56.968;24.196;2023-04-24T03:33:18;13.90;56.30
72604;DHT22;60645;56.968;24.196;2023-04-24T03:35:45;14.00;56.00
72604;DHT22;60645;56.968;24.196;2023-04-24T03:38:12;14.20;55.70
72604;DHT22;60645;56.968;24.196;2023-04-24T03:40:39;14.60;54.50
72604;DHT22;60645;56.968;24.196;2023-04-24T03:43:06;14.50;54.60
72604;DHT22;60645;56.968;24.196;2023-04-24T03:45:33;14.90;53.80
72604;DHT22;60645;56.968;24.196;2023-04-24T03:48:00;15.10;52.90
72604;DHT22;60645;56.968;24.196;2023-04-24T03:50:27;15.00;53.00
72604;DHT22;60645;56.968;24.196;2023-04-24T03:52:55;15.00;53.20
72604;DHT22;60645;56.968;24.196;2023-04-24T03:55:22;15.10;53.00
72604;DHT22;60645;56.968;24.196;2023-04-24T03:57:49;15.20;52.70
72604;DHT22;60645;56.968;24.196;2023-04-24T04:00:16;15.20;52.60
72604;DHT22;60645;56.968;24.196;2023-04-24T04:02:43;15.30;52.70
72604;DHT22;60645;56.968;24.196;2023-04-24T04:05:10;15.40;52.90
72604;DHT22;60645;56.968;24.196;2023-04-24T04:07:37;15.40;52.30
72604;DHT22;60645;56.968;24.196;2023-04-24T04:10:05;15.50;51.60
72604;DHT22;60645;56.968;24.196;2023-04-24T04:12:33;15.90;51.00
72604;DHT22;60645;56.968;24.196;2023-04-24T04:15:00;16.00;50.20
72604;DHT22;60645;56.968;24.196;2023-04-24T04:17:27;16.40;49.70
72604;DHT22;60645;56.968;24.196;2023-04-24T04:19:54;16.60;48.80
72604;DHT22;60645;56.968;24.196;2023-04-24T04:22:21;16.50;49.10
72604;DHT22;60645;56.968;24.196;2023-04-24T04:24:48;16.40;49.30
72604;DHT22;60645;56.968;24.196;2023-04-24T04:27:17;16.60;48.90
72604;DHT22;60645;56.968;24.196;2023-04-24T04:29:45;16.90;48.30
72604;DHT22;60645;56.968;24.196;2023-04-24T04:32:12;17.00;48.60
72604;DHT22;60645;56.968;24.196;2023-04-24T04:34:39;17.10;48.30
72604;DHT22;60645;56.968;24.196;2023-04-24T04:37:06;17.20;47.80
72604;DHT22;60645;56.968;24.196;2023-04-24T04:39:33;17.30;47.80
72604;DHT22;60645;56.968;24.196;2023-04-24T04:42:00;17.70;47.40
72604;DHT22;60645;56.968;24.196;2023-04-24T04:44:27;18.00;46.60
72604;DHT22;60645;56.968;24.196;2023-04-24T04:46:56;18.30;45.30
72604;DHT22;60645;56.968;24.196;2023-04-24T04:49:23;18.50;45.00
72604;DHT22;60645;56.968;24.196;2023-04-24T04:51:50;18.90;44.70
72604;DHT22;60645;56.968;24.196;2023-04-24T04:54:17;19.20;43.80
72604;DHT22;60645;56.968;24.196;2023-04-24T04:56:44;19.10;43.90
72604;DHT22;60645;56.968;24.196;2023-04-24T04:59:12;19.10;43.80
72604;DHT22;60645;56.968;24.196;2023-04-24T05:01:39;18.60;45.10
72604;DHT22;60645;56.968;24.196;2023-04-24T05:04:06;18.00;46.40
72604;DHT22;60645;56.968;24.196;2023-04-24T05:06:33;17.30;47.40
72604;DHT22;60645;56.968;24.196;2023-04-24T05:09:00;17.20;47.90
72604;DHT22;60645;56.968;24.196;2023-04-24T05:11:27;17.10;48.50
72604;DHT22;60645;56.968;24.196;2023-04-24T05:13:54;17.10;48.20
72604;DHT22;60645;56.968;24.196;2023-04-24T05:16:21;16.80;48.90
72604;DHT22;60645;56.968;24.196;2023-04-24T05:18:48;17.60;48.10
72604;DHT22;60645;56.968;24.196;2023-04-24T05:21:15;18.20;46.60
72604;DHT22;60645;56.968;24.196;2023-04-24T05:23:42;17.50;47.50
72604;DHT22;60645;56.968;24.196;2023-04-24T05:26:09;17.40;47.80
72604;DHT22;60645;56.968;24.196;2023-04-24T05:28:36;17.00;49.10
72604;DHT22;60645;56.968;24.196;2023-04-24T05:31:03;17.40;47.90
72604;DHT22;60645;56.968;24.196;2023-04-24T05:33:31;18.00;47.50
72604;DHT22;60645;56.968;24.196;2023-04-24T05:35:58;18.10;46.80
72604;DHT22;60645;56.968;24.196;2023-04-24T05:38:25;18.40;46.10
72604;DHT22;60645;56.968;24.196;2023-04-24T05:40:52;19.40;44.10
72604;DHT22;60645;56.968;24.196;2023-04-24T05:43:19;20.50;42.50
72604;DHT22;60645;56.968;24.196;2023-04-24T05:45:46;20.80;42.20
72604;DHT22;60645;56.968;24.196;2023-04-24T05:48:13;21.10;40.60
72604;DHT22;60645;56.968;24.196;2023-04-24T05:50:40;20.50;41.60
72604;DHT22;60645;56.968;24.196;2023-04-24T05:53:07;19.10;44.10
72604;DHT22;60645;56.968;24.196;2023-04-24T05:55:34;18.50;45.50
72604;DHT22;60645;56.968;24.196;2023-04-24T05:58:02;19.10;45.60
72604;DHT22;60645;56.968;24.196;2023-04-24T06:00:29;20.60;43.10
72604;DHT22;60645;56.968;24.196;2023-04-24T06:02:56;22.00;40.30
72604;DHT22;60645;56.968;24.196;2023-04-24T06:05:24;22.50;39.20
72604;DHT22;60645;56.968;24.196;2023-04-24T06:07:52;23.20;38.40
72604;DHT22;60645;56.968;24.196;2023-04-24T06:10:19;23.20;38.80
72604;DHT22;60645;56.968;24.196;2023-04-24T06:12:45;23.20;38.90
72604;DHT22;60645;56.968;24.196;2023-04-24T06:15:12;23.90;37.60
72604;DHT22;60645;56.968;24.196;2023-04-24T06:17:39;23.70;38.00
72604;DHT22;60645;56.968;24.196;2023-04-24T06:20:06;23.00;38.50
72604;DHT22;60645;56.968;24.196;2023-04-24T06:22:34;22.40;39.00
72604;DHT22;60645;56.968;24.196;2023-04-24T06:25:02;21.60;40.40
72604;DHT22;60645;56.968;24.196;2023-04-24T06:27:29;20.80;41.80
72604;DHT22;60645;56.968;24.196;2023-04-24T06:29:56;20.40;42.50
72604;DHT22;60645;56.968;24.196;2023-04-24T06:32:23;19.50;44.00
72604;DHT22;60645;56.968;24.196;2023-04-24T06:34:51;19.20;45.40
72604;DHT22;60645;56.968;24.196;2023-04-24T06:37:20;19.30;45.10
72604;DHT22;60645;56.968;24.196;2023-04-24T06:39:47;19.20;45.40
72604;DHT22;60645;56.968;24.196;2023-04-24T06:42:14;18.90;45.90
72604;DHT22;60645;56.968;24.196;2023-04-24T06:44:41;18.70;46.90
72604;DHT22;60645;56.968;24.196;2023-04-24T06:47:09;18.70;46.40
72604;DHT22;60645;56.968;24.196;2023-04-24T06:49:37;18.40;47.20
72604;DHT22;60645;56.968;24.196;2023-04-24T06:52:04;18.40;47.70
72604;DHT22;60645;56.968;24.196;2023-04-24T06:54:32;18.40;47.50
72604;DHT22;60645;56.968;24.196;2023-04-24T06:56:59;18.60;47.80
72604;DHT22;60645;56.968;24.196;2023-04-24T06:59:30;18.90;47.90
72604;DHT22;60645;56.968;24.196;2023-04-24T07:01:57;19.10;46.70
72604;DHT22;60645;56.968;24.196;2023-04-24T07:04:24;20.00;46.20
72604;DHT22;60645;56.968;24.196;2023-04-24T07:06:52;20.80;44.90
72604;DHT22;60645;56.968;24.196;2023-04-24T07:09:25;21.90;43.30
72604;DHT22;60645;56.968;24.196;2023-04-24T07:11:52;22.90;41.60
72604;DHT22;60645;56.968;24.196;2023-04-24T07:14:20;23.30;39.90
72604;DHT22;60645;56.968;24.196;2023-04-24T07:16:47;22.40;40.60
72604;DHT22;60645;56.968;24.196;2023-04-24T07:19:14;21.70;42.50
72604;DHT22;60645;56.968;24.196;2023-04-24T07:21:41;20.80;44.20
72604;DHT22;60645;56.968;24.196;2023-04-24T07:24:08;20.50;45.70
72604;DHT22;60645;56.968;24.196;2023-04-24T07:26:37;20.20;45.40
72604;DHT22;60645;56.968;24.196;2023-04-24T07:29:06;20.10;45.80
72604;DHT22;60645;56.968;24.196;2023-04-24T07:31:33;19.90;46.50
72604;DHT22;60645;56.968;24.196;2023-04-24T07:34:01;19.90;47.50
72604;DHT22;60645;56.968;24.196;2023-04-24T07:36:28;19.50;47.30
72604;DHT22;60645;56.968;24.196;2023-04-24T07:38:55;19.30;47.80
72604;DHT22;60645;56.968;24.196;2023-04-24T07:41:23;19.30;47.90
72604;DHT22;60645;56.968;24.196;2023-04-24T07:43:51;19.20;47.60
72604;DHT22;60645;56.968;24.196;2023-04-24T07:46:20;18.80;48.40
72604;DHT22;60645;56.968;24.196;2023-04-24T07:48:47;18.60;49.50
72604;DHT22;60645;56.968;24.196;2023-04-24T07:51:27;18.50;49.80
72604;DHT22;60645;56.968;24.196;2023-04-24T07:53:54;18.60;50.10
72604;DHT22;60645;56.968;24.196;2023-04-24T07:56:21;18.50;50.30
72604;DHT22;60645;56.968;24.196;2023-04-24T07:58:48;18.40;50.00
72604;DHT22;60645;56.968;24.196;2023-04-24T08:01:15;18.20;51.20
72604;DHT22;60645;56.968;24.196;2023-04-24T08:03:42;18.20;50.50
72604;DHT22;60645;56.968;24.196;2023-04-24T08:06:10;18.10;51.00
72604;DHT22;60645;56.968;24.196;2023-04-24T08:08:37;18.10;51.10
72604;DHT22;60645;56.968;24.196;2023-04-24T08:11:04;17.70;53.00
72604;DHT22;60645;56.968;24.196;2023-04-24T08:13:31;17.90;52.40
72604;DHT22;60645;56.968;24.196;2023-04-24T08:15:58;18.10;54.10
72604;DHT22;60645;56.968;24.196;2023-04-24T08:18:25;18.20;52.50
72604;DHT22;60645;56.968;24.196;2023-04-24T08:20:53;18.00;53.30
72604;DHT22;60645;56.968;24.196;2023-04-24T08:23:19;17.60;54.80
72604;DHT22;60645;56.968;24.196;2023-04-24T08:25:46;17.60;54.00
72604;DHT22;60645;56.968;24.196;2023-04-24T08:28:13;17.60;54.10
72604;DHT22;60645;56.968;24.196;2023-04-24T08:30:47;17.60;54.00
72604;DHT22;60645;56.968;24.196;2023-04-24T08:33:14;17.70;54.00
72604;DHT22;60645;56.968;24.196;2023-04-24T08:35:41;17.80;53.70
72604;DHT22;60645;56.968;24.196;2023-04-24T08:38:08;18.00;53.30
72604;DHT22;60645;56.968;24.196;2023-04-24T08:40:37;18.00;53.00
72604;DHT22;60645;56.968;24.196;2023-04-24T08:43:03;17.90;53.30
72604;DHT22;60645;56.968;24.196;2023-04-24T08:45:32;18.10;53.90
72604;DHT22;60645;56.968;24.196;2023-04-24T08:48:00;18.40;52.40
72604;DHT22;60645;56.968;24.196;2023-04-24T08:50:27;18.60;51.70
72604;DHT22;60645;56.968;24.196;2023-04-24T08:52:55;18.70;50.50
72604;DHT22;60645;56.968;24.196;2023-04-24T08:55:24;18.90;50.50
72604;DHT22;60645;56.968;24.196;2023-04-24T08:57:52;19.20;50.40
72604;DHT22;60645;56.968;24.196;2023-04-24T09:00:21;19.50;50.40
72604;DHT22;60645;56.968;24.196;2023-04-24T09:02:53;19.80;48.50
72604;DHT22;60645;56.968;24.196;2023-04-24T09:05:23;20.40;47.90
72604;DHT22;60645;56.968;24.196;2023-04-24T09:07:55;20.70;46.60
72604;DHT22;60645;56.968;24.196;2023-04-24T09:10:24;20.80;47.00
72604;DHT22;60645;56.968;24.196;2023-04-24T09:12:52;20.80;47.50
72604;DHT22;60645;56.968;24.196;2023-04-24T09:15:19;20.90;47.20
72604;DHT22;60645;56.968;24.196;2023-04-24T09:17:47;20.60;47.30
72604;DHT22;60645;56.968;24.196;2023-04-24T09:20:14;20.50;47.70
72604;DHT22;60645;56.968;24.196;2023-04-24T09:22:42;20.80;46.40
72604;DHT22;60645;56.968;24.196;2023-04-24T09:25:09;21.10;45.60
72604;DHT22;60645;56.968;24.196;2023-04-24T09:27:43;20.80;46.50
72604;DHT22;60645;56.968;24.196;2023-04-24T09:30:14;21.10;46.40
72604;DHT22;60645;56.968;24.196;2023-04-24T09:32:47;21.60;45.60
72604;DHT22;60645;56.968;24.196;2023-04-24T09:35:15;22.00;44.20
72604;DHT22;60645;56.968;24.196;2023-04-24T09:37:46;22.10;44.00
72604;DHT22;60645;56.968;24.196;2023-04-24T09:40:17;22.00;44.00
72604;DHT22;60645;56.968;24.196;2023-04-24T09:42:54;22.20;43.60
72604;DHT22;60645;56.968;24.196;2023-04-24T09:45:21;22.80;42.90
72604;DHT22;60645;56.968;24.196;2023-04-24T09:47:52;23.20;41.90
72604;DHT22;60645;56.968;24.196;2023-04-24T09:50:21;23.90;41.60
72604;DHT22;60645;56.968;24.196;2023-04-24T09:53:18;24.10;40.20
72604;DHT22;60645;56.968;24.196;2023-04-24T09:55:50;23.60;40.50
72604;DHT22;60645;56.968;24.196;2023-04-24T09:58:17;23.10;41.20
72604;DHT22;60645;56.968;24.196;2023-04-24T10:00:45;23.80;40.90
72604;DHT22;60645;56.968;24.196;2023-04-24T10:03:12;25.80;38.70
72604;DHT22;60645;56.968;24.196;2023-04-24T10:05:40;27.60;36.60
72604;DHT22;60645;56.968;24.196;2023-04-24T10:08:09;29.20;35.50
72604;DHT22;60645;56.968;24.196;2023-04-24T10:10:44;28.90;35.10
72604;DHT22;60645;56.968;24.196;2023-04-24T10:13:13;27.90;36.00
72604;DHT22;60645;56.968;24.196;2023-04-24T10:15:42;27.40;36.60
72604;DHT22;60645;56.968;24.196;2023-04-24T10:18:10;26.60;37.60
72604;DHT22;60645;56.968;24.196;2023-04-24T10:20:39;27.20;36.90
72604;DHT22;60645;56.968;24.196;2023-04-24T10:23:07;28.10;36.10
72604;DHT22;60645;56.968;24.196;2023-04-24T10:25:35;28.40;36.40
72604;DHT22;60645;56.968;24.196;2023-04-24T10:28:04;29.80;35.00
72604;DHT22;60645;56.968;24.196;2023-04-24T10:30:34;31.40;33.60
72604;DHT22;60645;56.968;24.196;2023-04-24T10:33:02;31.80;33.20
72604;DHT22;60645;56.968;24.196;2023-04-24T10:35:31;29.10;34.20
72604;DHT22;60645;56.968;24.196;2023-04-24T10:38:09;27.80;35.50
72604;DHT22;60645;56.968;24.196;2023-04-24T10:40:37;28.90;34.50
72604;DHT22;60645;56.968;24.196;2023-04-24T10:43:05;29.00;34.40
72604;DHT22;60645;56.968;24.196;2023-04-24T10:45:34;28.60;34.40
72604;DHT22;60645;56.968;24.196;2023-04-24T10:48:06;28.60;34.60
72604;DHT22;60645;56.968;24.196;2023-04-24T10:50:51;29.80;34.30
72604;DHT22;60645;56.968;24.196;2023-04-24T10:53:20;31.90;32.90
72604;DHT22;60645;56.968;24.196;2023-04-24T10:55:51;32.20;32.40
72604;DHT22;60645;56.968;24.196;2023-04-24T10:58:22;31.50;32.50
72604;DHT22;60645;56.968;24.196;2023-04-24T11:00:59;31.00;33.10
72604;DHT22;60645;56.968;24.196;2023-04-24T11:03:32;31.70;33.40
72604;DHT22;60645;56.968;24.196;2023-04-24T11:06:06;31.50;33.40
72604;DHT22;60645;56.968;24.196;2023-04-24T11:08:43;29.70;34.10
72604;DHT22;60645;56.968;24.196;2023-04-24T11:11:11;28.00;35.60
72604;DHT22;60645;56.968;24.196;2023-04-24T11:16:31;26.50;36.90
72604;DHT22;60645;56.968;24.196;2023-04-24T11:21:41;24.30;39.20
72604;DHT22;60645;56.968;24.196;2023-04-24T11:35:05;23.00;41.50
72604;DHT22;60645;56.968;24.196;2023-04-24T11:40:03;23.20;42.00
72604;DHT22;60645;56.968;24.196;2023-04-24T11:42:38;23.90;40.50
72604;DHT22;60645;56.968;24.196;2023-04-24T11:45:11;24.20;40.90
72604;DHT22;60645;56.968;24.196;2023-04-24T11:47:38;24.70;39.80
72604;DHT22;60645;56.968;24.196;2023-04-24T11:50:08;24.40;39.70
72604;DHT22;60645;56.968;24.196;2023-04-24T11:52:41;23.90;40.80
72604;DHT22;60645;56.968;24.196;2023-04-24T11:55:24;23.20;43.20
72604;DHT22;60645;56.968;24.196;2023-04-24T11:57:55;22.80;44.20
72604;DHT22;60645;56.968;24.196;2023-04-24T12:00:30;22.30;45.10
72604;DHT22;60645;56.968;24.196;2023-04-24T12:03:09;22.10;46.70
72604;DHT22;60645;56.968;24.196;2023-04-24T12:05:37;21.90;46.10
72604;DHT22;60645;56.968;24.196;2023-04-24T12:10:33;21.80;47.20
72604;DHT22;60645;56.968;24.196;2023-04-24T12:13:01;22.10;45.80
72604;DHT22;60645;56.968;24.196;2023-04-24T12:15:28;22.80;44.50
72604;DHT22;60645;56.968;24.196;2023-04-24T12:17:56;23.00;44.10
72604;DHT22;60645;56.968;24.196;2023-04-24T12:20:32;22.80;44.20
72604;DHT22;60645;56.968;24.196;2023-04-24T12:23:00;22.80;44.00
72604;DHT22;60645;56.968;24.196;2023-04-24T12:25:34;22.70;44.30
72604;DHT22;60645;56.968;24.196;2023-04-24T12:30:50;22.80;43.00
72604;DHT22;60645;56.968;24.196;2023-04-24T12:33:19;23.10;43.50
72604;DHT22;60645;56.968;24.196;2023-04-24T12:35:47;23.50;42.40
72604;DHT22;60645;56.968;24.196;2023-04-24T12:38:21;23.60;42.80
72604;DHT22;60645;56.968;24.196;2023-04-24T12:40:48;23.90;42.50
72604;DHT22;60645;56.968;24.196;2023-04-24T12:45:42;24.90;40.40
72604;DHT22;60645;56.968;24.196;2023-04-24T12:48:09;24.50;40.60
72604;DHT22;60645;56.968;24.196;2023-04-24T12:50:36;24.30;41.20
72604;DHT22;60645;56.968;24.196;2023-04-24T12:53:03;24.10;42.20
72604;DHT22;60645;56.968;24.196;2023-04-24T12:55:30;23.80;42.20
72604;DHT22;60645;56.968;24.196;2023-04-24T12:57:57;23.50;42.40
72604;DHT22;60645;56.968;24.196;2023-04-24T13:00:24;23.30;43.00
72604;DHT22;60645;56.968;24.196;2023-04-24T13:02:51;23.20;43.80
72604;DHT22;60645;56.968;24.196;2023-04-24T13:05:19;23.20;43.80
72604;DHT22;60645;56.968;24.196;2023-04-24T13:07:45;23.20;43.70
72604;DHT22;60645;56.968;24.196;2023-04-24T13:10:13;23.20;43.90
72604;DHT22;60645;56.968;24.196;2023-04-24T13:12:40;24.70;42.20
72604;DHT22;60645;56.968;24.196;2023-04-24T13:15:07;25.10;40.90
72604;DHT22;60645;56.968;24.196;2023-04-24T13:17:34;24.60;41.20
72604;DHT22;60645;56.968;24.196;2023-04-24T13:20:01;23.90;42.70
72604;DHT22;60645;56.968;24.196;2023-04-24T13:22:29;23.40;43.40
72604;DHT22;60645;56.968;24.196;2023-04-24T13:24:56;23.20;43.40
72604;DHT22;60645;56.968;24.196;2023-04-24T13:27:24;23.10;43.60
72604;DHT22;60645;56.968;24.196;2023-04-24T13:29:51;23.00;44.20
72604;DHT22;60645;56.968;24.196;2023-04-24T13:32:18;23.10;44.40
72604;DHT22;60645;56.968;24.196;2023-04-24T13:34:45;22.80;45.00
72604;DHT22;60645;56.968;24.196;2023-04-24T13:37:12;22.60;45.90
72604;DHT22;60645;56.968;24.196;2023-04-24T13:39:40;22.30;46.50
72604;DHT22;60645;56.968;24.196;2023-04-24T13:42:08;22.20;47.10
72604;DHT22;60645;56.968;24.196;2023-04-24T13:44:35;22.20;47.20
72604;DHT22;60645;56.968;24.196;2023-04-24T13:47:02;22.10;47.60
72604;DHT22;60645;56.968;24.196;2023-04-24T13:49:29;22.20;47.20
72604;DHT22;60645;56.968;24.196;2023-04-24T13:51:56;22.10;47.10
72604;DHT22;60645;56.968;24.196;2023-04-24T13:54:23;22.00;47.20
72604;DHT22;60645;56.968;24.196;2023-04-24T13:56:52;22.00;46.90
72604;DHT22;60645;56.968;24.196;2023-04-24T13:59:20;22.00;46.70
72604;DHT22;60645;56.968;24.196;2023-04-24T14:01:48;21.90;46.90
72604;DHT22;60645;56.968;24.196;2023-04-24T14:04:15;21.90;46.90
72604;DHT22;60645;56.968;24.196;2023-04-24T14:06:43;21.90;46.70
72604;DHT22;60645;56.968;24.196;2023-04-24T14:09:10;21.80;46.40
72604;DHT22;60645;56.968;24.196;2023-04-24T14:11:37;21.80;46.10
72604;DHT22;60645;56.968;24.196;2023-04-24T14:14:04;21.70;46.40
72604;DHT22;60645;56.968;24.196;2023-04-24T14:16:32;21.80;45.80
72604;DHT22;60645;56.968;24.196;2023-04-24T14:18:59;21.60;45.90
72604;DHT22;60645;56.968;24.196;2023-04-24T14:21:26;21.60;46.00
72604;DHT22;60645;56.968;24.196;2023-04-24T14:23:53;21.60;45.80
72604;DHT22;60645;56.968;24.196;2023-04-24T14:26:20;21.60;46.30
72604;DHT22;60645;56.968;24.196;2023-04-24T14:28:47;21.50;46.10
72604;DHT22;60645;56.968;24.196;2023-04-24T14:31:14;21.50;46.50
72604;DHT22;60645;56.968;24.196;2023-04-24T14:33:41;21.60;46.50
72604;DHT22;60645;56.968;24.196;2023-04-24T14:36:08;21.70;46.30
72604;DHT22;60645;56.968;24.196;2023-04-24T14:38:35;21.70;45.60
72604;DHT22;60645;56.968;24.196;2023-04-24T14:41:02;21.60;45.50
72604;DHT22;60645;56.968;24.196;2023-04-24T14:43:36;21.30;45.60
72604;DHT22;60645;56.968;24.196;2023-04-24T14:46:04;21.20;45.90
72604;DHT22;60645;56.968;24.196;2023-04-24T14:48:31;21.30;46.20
72604;DHT22;60645;56.968;24.196;2023-04-24T14:50:58;21.50;45.50
72604;DHT22;60645;56.968;24.196;2023-04-24T14:53:25;21.50;47.00
72604;DHT22;60645;56.968;24.196;2023-04-24T14:55:52;21.30;47.00
72604;DHT22;60645;56.968;24.196;2023-04-24T14:58:19;21.20;47.60
72604;DHT22;60645;56.968;24.196;2023-04-24T15:00:46;21.10;47.90
72604;DHT22;60645;56.968;24.196;2023-04-24T15:03:13;21.00;48.20
72604;DHT22;60645;56.968;24.196;2023-04-24T15:05:40;21.20;47.90
72604;DHT22;60645;56.968;24.196;2023-04-24T15:08:07;21.30;47.20
72604;DHT22;60645;56.968;24.196;2023-04-24T15:10:34;21.30;47.00
72604;DHT22;60645;56.968;24.196;2023-04-24T15:13:01;21.60;46.80
72604;DHT22;60645;56.968;24.196;2023-04-24T15:15:28;21.70;46.40
72604;DHT22;60645;56.968;24.196;2023-04-24T15:17:55;21.60;46.90
72604;DHT22;60645;56.968;24.196;2023-04-24T15:20:22;21.50;46.50
72604;DHT22;60645;56.968;24.196;2023-04-24T15:22:49;21.30;47.00
72604;DHT22;60645;56.968;24.196;2023-04-24T15:25:16;21.20;47.10
72604;DHT22;60645;56.968;24.196;2023-04-24T15:27:43;21.10;46.80
72604;DHT22;60645;56.968;24.196;2023-04-24T15:30:11;20.70;46.20
72604;DHT22;60645;56.968;24.196;2023-04-24T15:32:38;20.50;45.70
72604;DHT22;60645;56.968;24.196;2023-04-24T15:35:06;20.40;44.80
72604;DHT22;60645;56.968;24.196;2023-04-24T15:37:36;20.40;44.80
72604;DHT22;60645;56.968;24.196;2023-04-24T15:40:03;20.40;44.80
72604;DHT22;60645;56.968;24.196;2023-04-24T15:42:32;20.50;43.90
72604;DHT22;60645;56.968;24.196;2023-04-24T15:44:59;20.50;43.70
72604;DHT22;60645;56.968;24.196;2023-04-24T15:47:26;20.70;44.00